createdAt,value
2024-05-09T00:00:00.427Z,1.4
2024-05-09T00:05:00.880Z,1.8
2024-05-09T00:10:00.401Z,0.0
2024-05-09T00:15:00.449Z,3.6
2024-05-09T00:20:00.732Z,3.2
2024-05-09T00:25:00.454Z,5.0
2024-05-09T00:30:00.363Z,4.3
2024-05-09T00:35:00.754Z,3.6
2024-05-09T00:40:00.434Z,3.6
2024-05-09T00:45:00.365Z,4.7
2024-05-09T00:50:00.684Z,4.7
2024-05-09T00:55:00.356Z,4.0
2024-05-09T01:00:00.428Z,4.3
2024-05-09T01:05:00.986Z,2.2
2024-05-09T01:10:00.634Z,1.8
2024-05-09T01:15:00.434Z,0.0
2024-05-09T01:20:00.682Z,0.0
2024-05-09T01:25:00.400Z,0.0
2024-05-09T01:30:00.531Z,0.0
2024-05-09T01:35:00.650Z,0.0
2024-05-09T01:40:00.392Z,0.0
2024-05-09T01:45:00.409Z,0.0
2024-05-09T01:50:00.888Z,0.0
2024-05-09T01:55:07.041Z,0.0
2024-05-09T02:00:00.526Z,0.0
2024-05-09T02:05:01.065Z,0.0
2024-05-09T02:10:00.423Z,0.0
2024-05-09T02:15:00.339Z,0.0
2024-05-09T02:20:00.672Z,0.0
2024-05-09T02:25:00.368Z,0.0
2024-05-09T02:30:00.373Z,0.0
2024-05-09T02:35:00.668Z,0.0
2024-05-09T02:40:00.357Z,0.0
2024-05-09T02:45:00.452Z,0.0
2024-05-09T02:50:00.652Z,0.0
2024-05-09T02:55:00.338Z,0.0
2024-05-09T03:00:00.497Z,0.0
2024-05-09T03:05:00.462Z,0.0
2024-05-09T03:10:00.348Z,0.0
2024-05-09T03:15:00.487Z,0.0
2024-05-09T03:20:00.682Z,0.0
2024-05-09T03:25:00.460Z,0.0
2024-05-09T03:30:00.720Z,0.0
2024-05-09T03:35:00.517Z,0.0
2024-05-09T03:40:00.394Z,0.0
2024-05-09T03:45:00.376Z,0.0
2024-05-09T03:50:00.547Z,0.0
2024-05-09T03:55:00.366Z,0.0
2024-05-09T04:00:00.429Z,0.0
2024-05-09T04:05:00.668Z,0.0
2024-05-09T04:10:00.536Z,2.5
2024-05-09T04:15:00.381Z,0.0
2024-05-09T04:20:01.007Z,2.2
2024-05-09T04:25:00.399Z,4.0
2024-05-09T04:30:00.713Z,2.5
2024-05-09T04:35:00.541Z,6.5
2024-05-09T04:40:00.394Z,5.0
2024-05-09T04:45:00.356Z,4.7
2024-05-09T04:50:00.555Z,4.7
2024-05-09T04:55:00.342Z,7.9
2024-05-09T05:00:00.435Z,5.8
2024-05-09T05:05:01.001Z,6.8
2024-05-09T05:10:00.376Z,4.0
2024-05-09T05:15:00.414Z,3.6
2024-05-09T05:20:01.083Z,4.0
2024-05-09T05:25:00.349Z,6.1
2024-05-09T05:30:00.645Z,4.3
2024-05-09T05:35:00.540Z,5.0
2024-05-09T05:40:00.410Z,4.7
2024-05-09T05:45:00.350Z,3.2
2024-05-09T05:50:00.955Z,6.5
2024-05-09T05:55:00.427Z,7.6
2024-05-09T06:00:00.442Z,7.6
2024-05-09T06:05:01.009Z,4.7
2024-05-09T06:10:00.665Z,5.0
2024-05-09T06:15:00.492Z,5.8
2024-05-09T06:20:00.697Z,5.0
2024-05-09T06:25:00.459Z,4.7
2024-05-09T06:30:00.501Z,5.8
2024-05-09T06:35:00.474Z,5.4
2024-05-09T06:40:00.408Z,4.7
2024-05-09T06:45:00.488Z,4.0
2024-05-09T06:50:00.778Z,4.0
2024-05-09T06:55:00.442Z,7.2
2024-05-09T07:00:00.472Z,4.7
2024-05-09T07:05:01.151Z,4.7
2024-05-09T07:10:00.561Z,4.7
2024-05-09T07:15:00.353Z,6.1
2024-05-09T07:20:01.018Z,6.8
2024-05-09T07:25:00.439Z,7.2
2024-05-09T07:30:00.517Z,6.1
2024-05-09T07:35:00.667Z,7.6
2024-05-09T07:40:00.490Z,8.3
2024-05-09T07:55:01.579Z,10.8
2024-05-09T08:00:00.589Z,10.4
2024-05-09T08:05:01.087Z,9.7
2024-05-09T08:10:00.715Z,10.8
2024-05-09T08:15:00.400Z,9.0
2024-05-09T08:20:05.708Z,11.9
2024-05-09T08:25:00.476Z,12.6
2024-05-09T08:30:00.654Z,8.6
2024-05-09T08:35:00.671Z,9.7
2024-05-09T08:40:00.931Z,6.1
2024-05-09T08:45:00.385Z,6.5
2024-05-09T08:50:00.830Z,3.2
2024-05-09T08:55:00.587Z,5.0
2024-05-09T09:00:00.725Z,11.2
2024-05-09T09:05:00.905Z,5.0
2024-05-09T09:10:00.770Z,6.1
2024-05-09T09:15:00.419Z,8.6
2024-05-09T09:20:01.048Z,6.1
2024-05-09T09:25:01.292Z,4.7
2024-05-09T09:30:00.453Z,12.6
2024-05-09T09:35:00.757Z,11.9
2024-05-09T09:40:00.560Z,9.7
2024-05-09T09:45:06.167Z,6.1
2024-05-09T09:50:00.354Z,5.0
2024-05-09T09:55:00.612Z,9.4
2024-05-09T10:00:00.512Z,8.3
2024-05-09T10:05:00.699Z,4.7
2024-05-09T10:10:00.573Z,6.5
2024-05-09T10:15:00.444Z,9.4
2024-05-09T10:20:00.525Z,9.4
2024-05-09T10:25:05.441Z,6.5
2024-05-09T10:30:00.491Z,11.2
2024-05-09T10:35:01.055Z,13.3
2024-05-09T10:40:00.712Z,8.3
2024-05-09T10:45:00.438Z,5.4
2024-05-09T10:50:00.780Z,7.9
2024-05-09T10:55:05.460Z,6.8
2024-05-09T11:00:00.544Z,9.7
2024-05-09T11:05:00.845Z,6.5
2024-05-09T11:10:00.639Z,10.8
2024-05-09T11:15:00.397Z,9.0
2024-05-09T11:20:00.911Z,8.3
2024-05-09T11:25:00.538Z,11.2
2024-05-09T11:30:00.437Z,5.8
2024-05-09T11:35:00.342Z,6.1
2024-05-09T11:40:00.776Z,9.7
2024-05-09T11:45:00.511Z,7.9
2024-05-09T11:50:00.813Z,7.9
2024-05-09T11:55:00.488Z,7.6
2024-05-09T12:00:00.444Z,4.0
2024-05-09T12:05:00.792Z,8.6
2024-05-09T12:10:00.721Z,7.6
2024-05-09T12:15:00.441Z,10.4
2024-05-09T12:20:00.422Z,5.0
2024-05-09T12:25:00.606Z,7.6
2024-05-09T12:30:00.474Z,9.4
2024-05-09T12:35:00.422Z,10.1
2024-05-09T12:40:00.689Z,10.1
2024-05-09T12:45:00.509Z,6.1
2024-05-09T12:50:00.657Z,15.8
2024-05-09T12:55:00.783Z,10.4
2024-05-09T13:00:00.545Z,6.5
2024-05-09T13:05:00.740Z,8.6
2024-05-09T13:10:00.853Z,8.6
2024-05-09T13:15:00.394Z,13.0
2024-05-09T13:20:00.464Z,12.6
2024-05-09T13:25:00.529Z,16.6
2024-05-09T13:30:00.368Z,14.8
2024-05-09T13:35:00.436Z,8.3
2024-05-09T13:40:00.670Z,10.1
2024-05-09T13:45:00.399Z,14.0
2024-05-09T13:50:00.409Z,7.6
2024-05-09T13:55:00.514Z,8.6
2024-05-09T14:00:00.740Z,7.6
2024-05-09T14:05:00.998Z,10.8
2024-05-09T14:10:00.806Z,12.6
2024-05-09T14:15:00.476Z,9.7
2024-05-09T14:20:00.403Z,13.3
2024-05-09T14:25:00.695Z,10.1
2024-05-09T14:30:00.575Z,11.2
2024-05-09T14:35:00.733Z,6.1
2024-05-09T14:40:00.646Z,13.3
2024-05-09T14:45:00.407Z,9.4
2024-05-09T14:50:00.427Z,10.8
2024-05-09T14:55:01.595Z,15.1
2024-05-09T15:00:00.515Z,15.5
2024-05-09T15:05:01.055Z,9.4
2024-05-09T15:10:00.569Z,17.3
2024-05-09T15:15:00.470Z,16.6
2024-05-09T15:20:00.837Z,8.3
2024-05-09T15:25:00.734Z,5.8
2024-05-09T15:30:00.490Z,5.8
2024-05-09T15:35:00.588Z,4.7
2024-05-09T15:40:00.738Z,6.1
2024-05-09T15:45:00.442Z,6.8
2024-05-09T15:50:00.950Z,8.3
2024-05-09T15:55:00.546Z,8.6
2024-05-09T16:00:00.725Z,4.7
2024-05-09T16:05:00.899Z,5.4
2024-05-09T16:10:00.740Z,7.9
2024-05-09T16:15:00.434Z,4.0
2024-05-09T16:20:00.621Z,6.1
2024-05-09T16:25:00.740Z,5.4
2024-05-09T16:30:00.434Z,5.4
2024-05-09T16:35:00.683Z,6.8
2024-05-09T16:40:00.779Z,9.0
2024-05-09T16:45:00.691Z,8.6
2024-05-09T16:50:00.419Z,6.1
2024-05-09T16:55:00.798Z,6.8
2024-05-09T17:00:00.447Z,6.8
2024-05-09T17:05:01.157Z,4.0
2024-05-09T17:10:00.781Z,3.2
2024-05-09T17:15:00.389Z,2.9
2024-05-09T17:20:00.395Z,3.2
2024-05-09T17:25:00.840Z,3.2
2024-05-09T17:30:00.416Z,2.2
2024-05-09T17:35:01.068Z,2.2
2024-05-09T17:40:00.783Z,1.8
2024-05-09T17:45:01.042Z,2.5
2024-05-09T17:50:00.702Z,1.4
2024-05-09T17:55:01.109Z,0.0
2024-05-09T18:00:00.550Z,0.0
2024-05-09T18:05:01.128Z,0.0
2024-05-09T18:10:00.824Z,0.0
2024-05-09T18:15:00.404Z,0.0
2024-05-09T18:20:00.849Z,0.0
2024-05-09T18:25:00.565Z,0.0
2024-05-09T18:30:00.538Z,0.0
2024-05-09T18:35:00.811Z,0.0
2024-05-09T18:40:00.989Z,0.0
2024-05-09T18:45:00.734Z,0.0
2024-05-09T18:50:00.883Z,0.0
2024-05-09T18:55:00.569Z,5.0
2024-05-09T19:00:00.601Z,4.0
2024-05-09T19:05:00.772Z,5.0
2024-05-09T19:10:00.767Z,5.8
2024-05-09T19:15:00.401Z,5.0
2024-05-09T19:20:00.943Z,5.0
2024-05-09T19:25:00.658Z,6.1
2024-05-09T19:30:00.474Z,5.0
2024-05-09T19:35:00.510Z,2.2
2024-05-09T19:40:00.888Z,2.5
2024-05-09T19:45:00.363Z,4.3
2024-05-09T19:50:01.011Z,1.4
2024-05-09T19:55:00.784Z,0.0
2024-05-09T20:00:00.498Z,0.0
2024-05-09T20:05:01.323Z,0.0
2024-05-09T20:10:00.822Z,0.0
2024-05-09T20:15:00.446Z,0.0
2024-05-09T20:20:01.055Z,0.0
2024-05-09T20:25:00.708Z,0.0
2024-05-09T20:30:00.372Z,0.0
2024-05-09T20:35:00.390Z,0.0
2024-05-09T20:40:00.776Z,0.0
2024-05-09T20:45:01.778Z,0.0
2024-05-09T20:50:00.721Z,0.0
2024-05-09T20:55:00.847Z,0.0
2024-05-09T21:00:00.400Z,0.0
2024-05-09T21:05:01.299Z,0.0
2024-05-09T21:10:00.712Z,0.0
2024-05-09T21:15:00.414Z,0.0
2024-05-09T21:20:00.676Z,0.0
2024-05-09T21:25:00.648Z,0.0
2024-05-09T21:30:00.410Z,0.0
2024-05-09T21:35:00.324Z,0.0
2024-05-09T21:40:00.937Z,0.0
2024-05-09T21:45:00.379Z,0.0
2024-05-09T21:50:00.420Z,0.0
2024-05-09T21:55:00.687Z,0.0
2024-05-09T22:00:00.533Z,0.0
2024-05-09T22:05:01.167Z,0.0
2024-05-09T22:10:01.066Z,0.0
2024-05-09T22:15:00.355Z,0.0
2024-05-09T22:20:00.406Z,0.0
2024-05-09T22:25:00.779Z,0.0
2024-05-09T22:30:00.463Z,0.0
2024-05-09T22:35:01.129Z,0.0
2024-05-09T22:40:06.337Z,0.0
2024-05-09T22:45:00.539Z,0.0
2024-05-09T22:50:00.406Z,0.0
2024-05-09T22:55:00.465Z,0.0
2024-05-09T23:00:00.407Z,0.0
2024-05-09T23:05:00.938Z,0.0
2024-05-09T23:10:00.894Z,0.0
2024-05-09T23:15:00.490Z,0.0
2024-05-09T23:20:00.604Z,0.0
2024-05-09T23:25:00.581Z,0.0
2024-05-09T23:30:00.390Z,0.0
2024-05-09T23:35:00.813Z,4.7
2024-05-09T23:40:00.753Z,3.6
2024-05-09T23:45:00.360Z,0.0
2024-05-09T23:50:00.380Z,0.0
2024-05-09T23:55:00.692Z,0.0
